createdAt,value
2018-09-22T00:00:22.805Z,11.60
2018-09-22T00:02:51.403Z,11.60
2018-09-22T00:05:20.026Z,11.60
2018-09-22T00:07:55.875Z,11.60
2018-09-22T00:10:24.581Z,11.60
2018-09-22T00:12:53.375Z,11.60
2018-09-22T00:15:21.966Z,11.70
2018-09-22T00:17:50.688Z,11.70
2018-09-22T00:20:20.141Z,11.70
2018-09-22T00:22:48.720Z,11.70
2018-09-22T00:25:17.274Z,11.70
2018-09-22T00:27:45.844Z,11.70
2018-09-22T00:30:14.416Z,11.80
2018-09-22T00:32:42.959Z,11.80
2018-09-22T00:35:11.544Z,11.70
2018-09-22T00:37:40.085Z,11.70
2018-09-22T00:40:08.653Z,11.70
2018-09-22T00:42:37.222Z,11.70
2018-09-22T00:45:05.868Z,11.70
2018-09-22T00:47:34.440Z,11.70
2018-09-22T00:50:03.036Z,11.60
2018-09-22T00:52:31.707Z,11.60
2018-09-22T00:55:00.273Z,11.60
2018-09-22T00:57:28.847Z,11.50
2018-09-22T00:59:57.443Z,11.50
2018-09-22T01:02:26.168Z,11.50
2018-09-22T01:04:54.730Z,11.40
2018-09-22T01:07:23.289Z,11.40
2018-09-22T01:09:52.079Z,11.30
2018-09-22T01:12:21.926Z,11.20
2018-09-22T01:14:50.502Z,11.30
2018-09-22T01:17:19.083Z,11.20
2018-09-22T01:19:47.689Z,11.20
2018-09-22T01:22:16.306Z,11.10
2018-09-22T01:24:44.930Z,11.10
2018-09-22T01:27:13.524Z,11.00
2018-09-22T01:29:42.104Z,11.00
2018-09-22T01:32:10.710Z,11.00
2018-09-22T01:34:39.272Z,11.00
2018-09-22T01:37:07.803Z,11.00
2018-09-22T01:39:36.359Z,11.00
2018-09-22T01:42:04.938Z,11.10
2018-09-22T01:44:33.516Z,11.20
2018-09-22T01:47:02.108Z,11.10
2018-09-22T01:49:30.646Z,11.10
2018-09-22T01:51:59.200Z,11.20
2018-09-22T01:54:27.773Z,11.20
2018-09-22T01:56:56.347Z,11.30
2018-09-22T01:59:24.906Z,11.30
2018-09-22T02:01:53.497Z,11.40
2018-09-22T02:04:22.643Z,11.40
2018-09-22T02:06:51.208Z,11.50
2018-09-22T02:09:19.798Z,11.50
2018-09-22T02:11:48.372Z,11.60
2018-09-22T02:14:16.920Z,11.60
2018-09-22T02:16:45.510Z,11.70
2018-09-22T02:19:14.065Z,11.70
2018-09-22T02:21:42.636Z,11.70
2018-09-22T02:24:11.161Z,11.70
2018-09-22T02:26:39.745Z,11.80
2018-09-22T02:29:08.330Z,11.80
2018-09-22T02:31:36.943Z,11.80
2018-09-22T02:34:05.520Z,11.80
2018-09-22T02:36:34.103Z,11.80
2018-09-22T02:39:02.748Z,11.80
2018-09-22T02:41:31.353Z,11.70
2018-09-22T02:43:59.893Z,11.70
2018-09-22T02:46:28.500Z,11.70
2018-09-22T02:48:57.046Z,11.70
2018-09-22T02:51:25.596Z,11.60
2018-09-22T02:53:54.138Z,11.60
2018-09-22T02:56:22.727Z,11.60
2018-09-22T02:58:51.285Z,11.60
2018-09-22T03:01:19.888Z,11.50
2018-09-22T03:03:48.440Z,11.50
2018-09-22T03:06:17.025Z,11.40
2018-09-22T03:08:45.664Z,11.50
2018-09-22T03:11:14.190Z,11.50
2018-09-22T03:13:42.802Z,11.40
2018-09-22T03:16:11.356Z,11.40
2018-09-22T03:18:39.921Z,11.40
2018-09-22T03:21:08.507Z,11.40
2018-09-22T03:23:37.162Z,11.30
2018-09-22T03:26:05.759Z,11.30
2018-09-22T03:28:34.417Z,11.20
2018-09-22T03:31:02.999Z,11.20
2018-09-22T03:33:31.572Z,11.20
2018-09-22T03:36:00.150Z,11.20
2018-09-22T03:38:28.707Z,11.20
2018-09-22T03:40:57.295Z,11.20
2018-09-22T03:43:25.879Z,11.20
2018-09-22T03:45:54.451Z,11.10
2018-09-22T03:48:22.996Z,11.10
2018-09-22T03:50:51.559Z,11.10
2018-09-22T03:53:20.152Z,11.10
2018-09-22T03:55:48.752Z,11.10
2018-09-22T03:58:17.332Z,11.10
2018-09-22T04:00:45.921Z,11.10
2018-09-22T04:03:14.498Z,11.00
2018-09-22T04:05:43.147Z,11.10
2018-09-22T04:08:11.719Z,11.00
2018-09-22T04:10:40.269Z,11.00
2018-09-22T04:13:08.852Z,11.00
2018-09-22T04:15:37.442Z,11.00
2018-09-22T04:18:06.296Z,11.00
2018-09-22T04:20:34.887Z,11.00
2018-09-22T04:23:03.439Z,11.00
2018-09-22T04:25:32.021Z,10.90
2018-09-22T04:28:00.635Z,10.90
2018-09-22T04:30:29.261Z,11.00
2018-09-22T04:32:57.844Z,10.90
2018-09-22T04:35:26.568Z,10.90
2018-09-22T04:37:55.148Z,10.90
2018-09-22T04:40:23.780Z,10.90
2018-09-22T04:42:52.659Z,11.00
2018-09-22T04:45:21.293Z,10.90
2018-09-22T04:47:49.839Z,11.00
2018-09-22T04:50:18.409Z,10.90
2018-09-22T04:52:46.981Z,10.90
2018-09-22T04:55:15.580Z,10.90
2018-09-22T04:57:44.170Z,10.90
2018-09-22T05:00:12.776Z,10.90
2018-09-22T05:02:42.122Z,10.90
2018-09-22T05:05:10.742Z,10.90
2018-09-22T05:07:39.315Z,10.90
2018-09-22T05:10:07.942Z,10.80
2018-09-22T05:12:36.591Z,10.90
2018-09-22T05:15:05.279Z,10.80
2018-09-22T05:17:33.870Z,10.80
2018-09-22T05:20:02.510Z,10.90
2018-09-22T05:22:31.194Z,10.90
2018-09-22T05:24:59.804Z,10.90
2018-09-22T05:27:28.425Z,10.90
2018-09-22T05:29:56.987Z,10.90
2018-09-22T05:32:25.587Z,10.90
2018-09-22T05:34:54.169Z,10.90
2018-09-22T05:37:22.718Z,10.90
2018-09-22T05:39:51.270Z,10.90
2018-09-22T05:42:19.832Z,11.00
2018-09-22T05:44:48.438Z,11.00
2018-09-22T05:47:17.075Z,11.00
2018-09-22T05:49:45.639Z,11.10
2018-09-22T05:52:14.199Z,11.20
2018-09-22T05:54:42.704Z,11.30
2018-09-22T05:57:11.280Z,11.30
2018-09-22T05:59:39.848Z,11.30
2018-09-22T06:02:08.437Z,11.30
2018-09-22T06:04:37.151Z,11.30
2018-09-22T06:07:05.757Z,11.40
2018-09-22T06:09:34.330Z,11.50
2018-09-22T06:12:02.985Z,11.50
2018-09-22T06:14:31.567Z,11.60
2018-09-22T06:17:00.133Z,11.60
2018-09-22T06:19:28.721Z,11.70
2018-09-22T06:21:57.294Z,11.60
2018-09-22T06:24:25.871Z,11.60
2018-09-22T06:26:54.428Z,11.60
2018-09-22T06:29:23.045Z,11.60
2018-09-22T06:31:51.623Z,11.70
2018-09-22T06:34:20.179Z,11.70
2018-09-22T06:36:48.775Z,11.80
2018-09-22T06:39:17.375Z,11.80
2018-09-22T06:41:45.952Z,11.80
2018-09-22T06:44:14.507Z,11.80
2018-09-22T06:46:43.047Z,11.90
2018-09-22T06:49:11.689Z,12.00
2018-09-22T06:51:40.243Z,12.00
2018-09-22T06:54:08.840Z,12.10
2018-09-22T06:56:37.536Z,12.10
2018-09-22T06:59:06.118Z,12.20
2018-09-22T07:01:34.694Z,12.20
2018-09-22T07:04:03.246Z,12.30
2018-09-22T07:06:31.877Z,12.30
2018-09-22T07:09:00.409Z,12.40
2018-09-22T07:11:29.093Z,12.40
2018-09-22T07:13:57.735Z,12.40
2018-09-22T07:16:26.301Z,12.50
2018-09-22T07:18:54.890Z,12.60
2018-09-22T07:21:29.031Z,12.60
2018-09-22T07:23:57.611Z,12.70
2018-09-22T07:26:26.197Z,12.60
2018-09-22T07:28:54.742Z,12.70
2018-09-22T07:31:23.306Z,12.80
2018-09-22T07:33:51.936Z,12.70
2018-09-22T07:36:20.534Z,12.80
2018-09-22T07:38:49.080Z,12.90
2018-09-22T07:41:18.057Z,12.90
2018-09-22T07:43:46.633Z,12.90
2018-09-22T07:46:15.213Z,12.90
2018-09-22T07:48:43.795Z,13.00
2018-09-22T07:51:12.390Z,13.00
2018-09-22T07:53:41.003Z,13.00
2018-09-22T07:56:09.561Z,12.90
2018-09-22T07:58:38.268Z,12.90
2018-09-22T08:01:06.926Z,12.90
2018-09-22T08:03:35.609Z,12.90
2018-09-22T08:06:04.203Z,13.00
2018-09-22T08:08:32.815Z,13.00
2018-09-22T08:11:01.377Z,13.00
2018-09-22T08:13:29.961Z,13.00
2018-09-22T08:15:58.504Z,13.00
2018-09-22T08:18:27.156Z,13.10
2018-09-22T08:20:55.760Z,13.10
2018-09-22T08:23:24.333Z,13.20
2018-09-22T08:25:55.712Z,13.20
2018-09-22T08:28:24.301Z,13.20
2018-09-22T08:30:52.921Z,13.30
2018-09-22T08:33:21.603Z,13.40
2018-09-22T08:35:50.245Z,13.40
2018-09-22T08:38:18.827Z,13.40
2018-09-22T08:40:47.433Z,13.50
2018-09-22T08:43:16.001Z,13.50
2018-09-22T08:45:45.312Z,13.50
2018-09-22T08:48:13.934Z,13.60
2018-09-22T08:50:42.585Z,13.60
2018-09-22T08:53:11.167Z,13.60
2018-09-22T08:55:39.771Z,13.70
2018-09-22T08:58:08.337Z,13.80
2018-09-22T09:00:36.923Z,13.90
2018-09-22T09:03:05.513Z,13.90
2018-09-22T09:05:34.169Z,13.90
2018-09-22T09:08:02.840Z,13.90
2018-09-22T09:10:31.421Z,14.00
2018-09-22T09:13:00.017Z,14.00
2018-09-22T09:15:28.595Z,14.20
2018-09-22T09:17:57.187Z,14.30
2018-09-22T09:20:25.777Z,14.30
2018-09-22T09:22:54.348Z,14.30
2018-09-22T09:25:22.984Z,14.50
2018-09-22T09:27:51.675Z,14.60
2018-09-22T09:30:20.353Z,14.60
2018-09-22T09:32:48.900Z,14.80
2018-09-22T09:35:17.487Z,15.00
2018-09-22T09:37:46.540Z,14.80
2018-09-22T09:40:15.097Z,14.60
2018-09-22T09:42:43.633Z,14.80
2018-09-22T09:45:12.290Z,15.00
2018-09-22T09:47:40.872Z,15.00
2018-09-22T09:50:09.442Z,15.10
2018-09-22T09:52:38.034Z,15.10
2018-09-22T09:55:06.808Z,14.90
2018-09-22T09:57:35.427Z,14.90
2018-09-22T10:00:04.131Z,15.00
2018-09-22T10:02:32.691Z,15.00
2018-09-22T10:05:01.217Z,15.10
2018-09-22T10:07:29.798Z,15.10
2018-09-22T10:09:58.364Z,15.00
2018-09-22T10:12:26.976Z,14.90
2018-09-22T10:14:55.519Z,14.90
2018-09-22T10:17:24.137Z,14.90
2018-09-22T10:19:52.732Z,14.90
2018-09-22T10:22:21.300Z,15.30
2018-09-22T10:24:49.890Z,15.50
2018-09-22T10:27:18.452Z,15.50
2018-09-22T10:29:47.178Z,15.40
2018-09-22T10:32:15.746Z,15.30
2018-09-22T10:34:44.332Z,15.00
2018-09-22T10:37:12.900Z,14.60
2018-09-22T10:39:41.488Z,14.20
2018-09-22T10:42:10.093Z,13.80
2018-09-22T10:44:38.675Z,11.90
2018-09-22T10:47:07.234Z,10.90
2018-09-22T10:49:35.813Z,10.40
2018-09-22T10:52:04.352Z,10.30
2018-09-22T10:54:32.936Z,10.40
2018-09-22T10:57:01.500Z,10.50
2018-09-22T10:59:30.076Z,10.70
2018-09-22T11:01:58.616Z,10.70
2018-09-22T11:04:27.183Z,10.90
2018-09-22T11:06:55.741Z,10.90
2018-09-22T11:09:24.312Z,11.10
2018-09-22T11:11:52.868Z,11.20
2018-09-22T11:14:21.452Z,11.30
2018-09-22T11:16:50.040Z,11.50
2018-09-22T11:19:18.602Z,11.50
2018-09-22T11:21:47.645Z,11.60
2018-09-22T11:24:16.228Z,11.70
2018-09-22T11:26:44.888Z,11.90
2018-09-22T11:29:13.497Z,12.10
2018-09-22T11:31:42.132Z,12.20
2018-09-22T11:34:10.704Z,12.30
2018-09-22T11:36:39.355Z,12.40
2018-09-22T11:39:09.178Z,12.50
2018-09-22T11:41:38.141Z,12.50
2018-09-22T11:44:07.027Z,12.70
2018-09-22T11:46:35.633Z,12.70
2018-09-22T11:49:04.252Z,12.70
2018-09-22T11:51:32.879Z,12.60
2018-09-22T11:54:01.421Z,12.60
2018-09-22T11:56:30.055Z,12.60
2018-09-22T11:58:58.596Z,11.60
2018-09-22T12:01:27.216Z,10.70
2018-09-22T12:03:55.808Z,10.40
2018-09-22T12:06:24.444Z,10.50
2018-09-22T12:08:53.111Z,10.60
2018-09-22T12:11:21.713Z,10.80
2018-09-22T12:13:50.320Z,11.00
2018-09-22T12:16:18.957Z,11.20
2018-09-22T12:18:47.537Z,11.40
2018-09-22T12:21:16.167Z,11.50
2018-09-22T12:23:45.090Z,11.60
2018-09-22T12:26:13.910Z,11.70
2018-09-22T12:28:42.469Z,11.90
2018-09-22T12:31:11.088Z,12.10
2018-09-22T12:33:39.637Z,12.20
2018-09-22T12:36:08.256Z,12.30
2018-09-22T12:38:36.835Z,12.50
2018-09-22T12:41:05.447Z,12.50
2018-09-22T12:43:33.972Z,12.70
2018-09-22T12:46:02.586Z,12.80
2018-09-22T12:48:31.095Z,12.90
2018-09-22T12:50:59.667Z,13.00
2018-09-22T12:53:28.212Z,12.90
2018-09-22T12:55:56.760Z,13.00
2018-09-22T12:58:25.381Z,13.20
2018-09-22T13:00:53.916Z,13.30
2018-09-22T13:03:22.452Z,13.40
2018-09-22T13:05:51.003Z,13.50
2018-09-22T13:08:19.549Z,13.50
2018-09-22T13:10:48.099Z,13.50
2018-09-22T13:13:16.739Z,13.60
2018-09-22T13:15:45.430Z,13.70
2018-09-22T13:18:14.148Z,13.80
2018-09-22T13:20:43.073Z,13.80
2018-09-22T13:23:11.628Z,13.70
2018-09-22T13:25:40.168Z,13.60
2018-09-22T13:28:08.703Z,13.60
2018-09-22T13:30:37.262Z,13.70
2018-09-22T13:33:05.805Z,13.90
2018-09-22T13:35:34.363Z,14.00
2018-09-22T13:38:02.910Z,14.00
2018-09-22T13:40:31.536Z,14.00
2018-09-22T13:43:00.085Z,14.00
2018-09-22T13:45:28.658Z,14.10
2018-09-22T13:47:57.249Z,14.20
2018-09-22T13:50:25.780Z,14.20
2018-09-22T13:52:54.341Z,13.80
2018-09-22T13:55:22.891Z,13.10
2018-09-22T13:57:51.465Z,12.90
2018-09-22T14:00:20.031Z,12.60
2018-09-22T14:02:48.584Z,12.40
2018-09-22T14:05:17.154Z,12.30
2018-09-22T14:07:45.799Z,12.40
2018-09-22T14:10:14.616Z,12.50
2018-09-22T14:12:43.055Z,12.40
2018-09-22T14:15:11.603Z,12.30
2018-09-22T14:17:40.131Z,12.30
2018-09-22T14:20:08.705Z,12.20
2018-09-22T14:22:37.252Z,12.20
2018-09-22T14:25:05.874Z,12.20
2018-09-22T14:27:34.438Z,12.30
2018-09-22T14:30:03.088Z,12.40
2018-09-22T14:32:31.653Z,12.30
2018-09-22T14:35:00.399Z,12.00
2018-09-22T14:37:28.998Z,11.90
2018-09-22T14:39:57.576Z,11.80
2018-09-22T14:42:26.143Z,12.00
2018-09-22T14:44:54.713Z,12.00
2018-09-22T14:47:23.268Z,12.00
2018-09-22T14:49:51.857Z,12.10
2018-09-22T14:52:20.398Z,12.20
2018-09-22T14:54:48.942Z,12.40
2018-09-22T14:57:17.509Z,12.50
2018-09-22T14:59:46.065Z,12.70
2018-09-22T15:02:14.721Z,12.60
2018-09-22T15:04:43.262Z,12.50
2018-09-22T15:07:11.827Z,12.40
2018-09-22T15:09:40.372Z,12.40
2018-09-22T15:12:09.015Z,13.40
2018-09-22T15:14:37.594Z,14.00
2018-09-22T15:17:06.175Z,14.60
2018-09-22T15:19:34.761Z,14.60
2018-09-22T15:22:03.313Z,14.90
2018-09-22T15:24:31.871Z,15.40
2018-09-22T15:27:00.437Z,15.30
2018-09-22T15:29:29.024Z,15.50
2018-09-22T15:31:57.582Z,15.60
2018-09-22T15:34:26.156Z,15.90
2018-09-22T15:36:54.767Z,15.80
2018-09-22T15:39:23.275Z,15.70
2018-09-22T15:41:51.843Z,15.90
2018-09-22T15:44:20.381Z,15.80
2018-09-22T15:46:48.957Z,16.10
2018-09-22T15:49:17.502Z,15.40
2018-09-22T15:51:46.042Z,15.00
2018-09-22T15:54:14.652Z,14.40
2018-09-22T15:56:43.194Z,13.90
2018-09-22T15:59:11.752Z,13.60
2018-09-22T16:01:40.373Z,13.40
2018-09-22T16:04:09.014Z,13.20
2018-09-22T16:06:37.541Z,13.10
2018-09-22T16:09:08.197Z,13.00
2018-09-22T16:11:36.963Z,12.90
2018-09-22T16:14:05.535Z,12.80
2018-09-22T16:16:34.101Z,12.70
2018-09-22T16:19:02.880Z,12.70
2018-09-22T16:21:31.827Z,12.70
2018-09-22T16:24:00.579Z,12.70
2018-09-22T16:26:29.193Z,12.70
2018-09-22T16:28:57.735Z,12.60
2018-09-22T16:31:26.281Z,12.60
2018-09-22T16:33:54.869Z,12.60
2018-09-22T16:36:23.483Z,12.60
2018-09-22T16:38:52.077Z,12.50
2018-09-22T16:41:20.696Z,12.40
2018-09-22T16:43:50.336Z,12.40
2018-09-22T16:46:19.011Z,12.30
2018-09-22T16:48:47.623Z,12.30
2018-09-22T16:51:16.213Z,12.20
2018-09-22T16:53:44.725Z,12.10
2018-09-22T16:56:13.299Z,12.10
2018-09-22T16:58:41.860Z,12.00
2018-09-22T17:01:10.485Z,12.00
2018-09-22T17:03:39.093Z,12.00
2018-09-22T17:06:07.688Z,12.00
2018-09-22T17:08:36.325Z,12.00
2018-09-22T17:11:04.862Z,12.00
2018-09-22T17:13:33.484Z,11.90
2018-09-22T17:16:02.115Z,11.90
2018-09-22T17:18:30.681Z,11.80
2018-09-22T17:20:59.236Z,11.80
2018-09-22T17:23:27.808Z,11.90
2018-09-22T17:25:57.317Z,11.90
2018-09-22T17:28:25.939Z,11.90
2018-09-22T17:30:54.551Z,11.90
2018-09-22T17:33:23.116Z,11.90
2018-09-22T17:35:51.704Z,11.80
2018-09-22T17:38:20.273Z,11.90
2018-09-22T17:40:48.809Z,11.90
2018-09-22T17:43:17.510Z,11.90
2018-09-22T17:45:46.168Z,11.90
2018-09-22T17:48:14.752Z,11.90
2018-09-22T17:50:43.379Z,11.90
2018-09-22T17:53:11.962Z,11.90
2018-09-22T17:55:40.612Z,11.80
2018-09-22T17:58:09.150Z,11.80
2018-09-22T18:00:37.728Z,11.80
2018-09-22T18:03:06.401Z,11.70
2018-09-22T18:05:35.063Z,11.80
2018-09-22T18:08:03.675Z,11.80
2018-09-22T18:10:32.232Z,11.80
2018-09-22T18:13:00.857Z,11.80
2018-09-22T18:15:29.456Z,11.70
2018-09-22T18:17:58.084Z,11.70
2018-09-22T18:20:26.667Z,11.60
2018-09-22T18:22:55.243Z,11.70
2018-09-22T18:25:23.901Z,11.60
2018-09-22T18:27:52.445Z,11.60
2018-09-22T18:30:21.148Z,11.60
2018-09-22T18:32:50.228Z,11.50
2018-09-22T18:35:18.816Z,11.60
2018-09-22T18:37:47.384Z,11.50
2018-09-22T18:40:15.967Z,11.50
2018-09-22T18:42:44.526Z,11.50
2018-09-22T18:45:13.120Z,11.40
2018-09-22T18:47:41.721Z,11.40
2018-09-22T18:50:10.315Z,11.40
2018-09-22T18:52:38.928Z,11.50
2018-09-22T18:55:07.735Z,11.50
2018-09-22T18:57:36.503Z,11.40
2018-09-22T19:00:06.245Z,11.40
2018-09-22T19:02:47.227Z,11.50
2018-09-22T19:05:16.072Z,11.50
2018-09-22T19:07:52.547Z,11.50
2018-09-22T19:14:00.297Z,11.70
2018-09-22T19:16:33.538Z,11.60
2018-09-22T19:19:16.220Z,11.40
2018-09-22T19:22:03.263Z,11.30
2018-09-22T19:24:43.569Z,11.20
2018-09-22T19:27:17.930Z,11.00
2018-09-22T19:29:59.994Z,11.00
2018-09-22T19:32:40.003Z,11.00
2018-09-22T19:35:16.188Z,11.00
2018-09-22T19:37:48.457Z,11.10
2018-09-22T19:40:20.771Z,11.10
2018-09-22T19:42:58.121Z,11.10
2018-09-22T19:45:36.283Z,11.00
2018-09-22T19:48:11.149Z,11.00
2018-09-22T19:50:52.520Z,11.10
2018-09-22T19:53:21.163Z,11.10
2018-09-22T19:55:50.347Z,11.10
2018-09-22T19:58:18.889Z,11.10
2018-09-22T20:00:47.460Z,11.10
2018-09-22T20:03:16.025Z,11.00
2018-09-22T20:05:44.698Z,11.10
2018-09-22T20:10:59.658Z,11.10
2018-09-22T20:13:28.196Z,11.10
2018-09-22T20:15:56.873Z,11.10
2018-09-22T20:18:25.472Z,11.10
2018-09-22T20:20:53.985Z,11.10
2018-09-22T20:23:22.514Z,11.10
2018-09-22T20:25:52.151Z,11.10
2018-09-22T20:28:20.719Z,11.10
2018-09-22T20:30:49.306Z,11.10
2018-09-22T20:33:17.937Z,11.10
2018-09-22T20:35:46.427Z,11.10
2018-09-22T20:38:15.171Z,11.20
2018-09-22T20:40:43.887Z,11.20
2018-09-22T20:43:12.499Z,11.20
2018-09-22T20:45:41.160Z,11.20
2018-09-22T20:48:09.727Z,11.20
2018-09-22T20:50:38.374Z,11.30
2018-09-22T20:53:07.132Z,11.30
2018-09-22T20:55:35.717Z,11.20
2018-09-22T20:58:04.339Z,11.20
2018-09-22T21:00:32.891Z,11.20
2018-09-22T21:03:01.447Z,11.20
2018-09-22T21:05:30.029Z,11.20
2018-09-22T21:07:58.591Z,11.20
2018-09-22T21:10:27.190Z,11.30
2018-09-22T21:12:55.806Z,11.30
2018-09-22T21:15:24.364Z,11.30
2018-09-22T21:17:53.936Z,11.30
2018-09-22T21:20:22.496Z,11.40
2018-09-22T21:22:51.136Z,11.40
2018-09-22T21:25:19.745Z,11.30
2018-09-22T21:27:48.315Z,11.20
2018-09-22T21:30:16.884Z,11.20
2018-09-22T21:32:45.427Z,11.20
2018-09-22T21:35:14.040Z,11.20
2018-09-22T21:37:42.616Z,11.20
2018-09-22T21:40:11.200Z,11.20
2018-09-22T21:42:39.761Z,11.20
2018-09-22T21:45:08.387Z,11.10
2018-09-22T21:47:36.966Z,11.10
2018-09-22T21:50:05.641Z,11.00
2018-09-22T21:52:34.284Z,11.00
2018-09-22T21:55:02.843Z,11.10
2018-09-22T21:57:31.516Z,11.10
2018-09-22T22:00:00.052Z,11.10
2018-09-22T22:02:28.598Z,11.10
2018-09-22T22:04:57.187Z,11.10
2018-09-22T22:07:25.849Z,11.10
2018-09-22T22:09:54.505Z,11.10
2018-09-22T22:12:23.120Z,11.10
2018-09-22T22:14:51.676Z,11.10
2018-09-22T22:17:20.343Z,11.00
2018-09-22T22:19:48.907Z,11.10
2018-09-22T22:22:17.459Z,11.10
2018-09-22T22:24:45.989Z,11.00
2018-09-22T22:27:14.599Z,11.00
2018-09-22T22:29:43.147Z,11.10
2018-09-22T22:32:11.692Z,11.10
2018-09-22T22:34:40.248Z,11.10
2018-09-22T22:37:08.816Z,11.10
2018-09-22T22:39:37.367Z,11.20
2018-09-22T22:42:05.936Z,11.10
2018-09-22T22:44:34.465Z,11.10
2018-09-22T22:47:03.036Z,11.20
2018-09-22T22:49:31.635Z,11.20
2018-09-22T22:52:00.187Z,11.20
2018-09-22T22:54:28.801Z,11.20
2018-09-22T22:56:57.360Z,11.20
2018-09-22T22:59:25.953Z,11.10
2018-09-22T23:01:54.777Z,11.00
2018-09-22T23:04:23.443Z,11.00
2018-09-22T23:06:51.979Z,11.00
2018-09-22T23:09:20.616Z,11.00
2018-09-22T23:11:49.176Z,10.90
2018-09-22T23:14:17.784Z,10.90
2018-09-22T23:16:46.332Z,10.90
2018-09-22T23:19:14.896Z,10.90
2018-09-22T23:21:43.446Z,10.90
2018-09-22T23:24:12.000Z,10.90
2018-09-22T23:26:40.547Z,10.90
2018-09-22T23:29:09.104Z,10.80
2018-09-22T23:31:37.662Z,10.80
2018-09-22T23:34:06.253Z,10.80
2018-09-22T23:36:34.819Z,10.80
2018-09-22T23:39:03.763Z,10.80
2018-09-22T23:41:32.286Z,10.80
2018-09-22T23:44:00.815Z,10.80
2018-09-22T23:46:29.386Z,10.80
2018-09-22T23:48:57.982Z,10.90
2018-09-22T23:51:26.532Z,10.80
2018-09-22T23:53:55.449Z,10.80
2018-09-22T23:56:24.015Z,10.80
2018-09-22T23:58:52.580Z,10.80
